createdAt,value
2019-05-30T00:00:17.618Z,2.35
2019-05-30T00:02:43.539Z,2.30
2019-05-30T00:05:10.969Z,2.00
2019-05-30T00:07:38.192Z,2.55
2019-05-30T00:10:05.641Z,2.52
2019-05-30T00:12:33.266Z,2.00
2019-05-30T00:15:00.920Z,2.10
2019-05-30T00:17:28.138Z,2.50
2019-05-30T00:19:56.741Z,2.20
2019-05-30T00:22:25.030Z,2.52
2019-05-30T00:24:53.222Z,2.40
2019-05-30T00:27:20.722Z,2.45
2019-05-30T00:29:48.248Z,2.30
2019-05-30T00:32:15.438Z,2.30
2019-05-30T00:34:42.943Z,2.67
2019-05-30T00:37:10.535Z,2.27
2019-05-30T00:39:38.482Z,2.47
2019-05-30T00:42:06.228Z,2.85
2019-05-30T00:44:34.327Z,2.33
2019-05-30T00:47:02.435Z,2.70
2019-05-30T00:49:30.315Z,2.47
2019-05-30T00:51:58.365Z,2.25
2019-05-30T00:54:26.135Z,2.15
2019-05-30T00:56:53.536Z,2.58
2019-05-30T00:59:21.037Z,2.40
2019-05-30T01:01:48.946Z,2.37
2019-05-30T01:04:16.154Z,2.22
2019-05-30T01:06:43.667Z,2.50
2019-05-30T01:09:10.862Z,2.42
2019-05-30T01:11:38.797Z,2.20
2019-05-30T01:14:07.361Z,2.90
2019-05-30T01:16:35.152Z,2.70
2019-05-30T01:19:03.223Z,2.50
2019-05-30T01:21:30.611Z,2.52
2019-05-30T01:23:59.307Z,2.62
2019-05-30T01:26:27.031Z,2.85
2019-05-30T01:28:54.605Z,2.50
2019-05-30T01:31:22.316Z,2.70
2019-05-30T01:33:49.847Z,2.58
2019-05-30T01:36:17.723Z,2.72
2019-05-30T01:38:44.985Z,2.55
2019-05-30T01:41:12.498Z,2.62
2019-05-30T01:43:40.715Z,2.60
2019-05-30T01:46:08.580Z,2.75
2019-05-30T01:48:36.170Z,2.80
2019-05-30T01:51:06.530Z,2.65
2019-05-30T01:53:34.331Z,2.72
2019-05-30T01:56:02.724Z,2.70
2019-05-30T01:58:30.836Z,2.60
2019-05-30T02:00:58.810Z,2.60
2019-05-30T02:03:27.855Z,3.12
2019-05-30T02:05:55.752Z,2.65
2019-05-30T02:08:23.313Z,2.50
2019-05-30T02:10:50.497Z,2.60
2019-05-30T02:13:17.712Z,2.95
2019-05-30T02:15:45.915Z,2.30
2019-05-30T02:18:13.199Z,2.70
2019-05-30T02:20:40.583Z,2.58
2019-05-30T02:23:09.922Z,2.58
2019-05-30T02:25:37.262Z,2.50
2019-05-30T02:28:04.487Z,2.70
2019-05-30T02:30:31.996Z,2.60
2019-05-30T02:33:00.677Z,2.55
2019-05-30T02:35:28.003Z,2.60
2019-05-30T02:37:55.098Z,2.70
2019-05-30T02:40:24.915Z,2.40
2019-05-30T02:42:52.391Z,2.60
2019-05-30T02:45:19.621Z,2.47
2019-05-30T02:47:47.436Z,2.67
2019-05-30T02:50:16.061Z,2.70
2019-05-30T02:52:43.591Z,2.45
2019-05-30T02:55:13.552Z,2.60
2019-05-30T02:57:41.200Z,2.50
2019-05-30T03:00:15.323Z,2.90
2019-05-30T03:02:39.060Z,2.42
2019-05-30T03:05:08.424Z,2.75
2019-05-30T03:07:36.611Z,2.70
2019-05-30T03:10:05.201Z,2.85
2019-05-30T03:12:33.746Z,2.90
2019-05-30T03:15:04.826Z,2.62
2019-05-30T03:17:32.271Z,2.52
2019-05-30T03:20:00.066Z,2.52
2019-05-30T03:22:27.640Z,3.02
2019-05-30T03:24:55.210Z,2.55
2019-05-30T03:27:22.804Z,2.62
2019-05-30T03:29:51.432Z,2.40
2019-05-30T03:33:00.269Z,2.30
2019-05-30T03:34:49.363Z,2.52
2019-05-30T03:37:28.063Z,2.55
2019-05-30T03:39:47.572Z,2.40
2019-05-30T03:42:16.184Z,2.47
2019-05-30T03:44:44.180Z,2.50
2019-05-30T03:47:15.563Z,2.60
2019-05-30T03:49:46.105Z,2.45
2019-05-30T03:52:17.199Z,2.35
2019-05-30T03:54:45.507Z,2.37
2019-05-30T03:57:19.970Z,2.60
2019-05-30T03:59:57.400Z,2.87
2019-05-30T04:02:57.037Z,2.45
2019-05-30T04:05:25.198Z,2.35
2019-05-30T04:07:55.481Z,2.42
2019-05-30T04:10:27.250Z,2.50
2019-05-30T04:13:09.667Z,2.25
2019-05-30T04:15:37.435Z,2.40
2019-05-30T04:18:07.013Z,2.15
2019-05-30T04:20:34.611Z,2.37
2019-05-30T04:23:02.089Z,2.40
2019-05-30T04:25:30.295Z,2.20
2019-05-30T04:27:57.580Z,2.20
2019-05-30T04:30:25.131Z,2.67
2019-05-30T04:32:52.784Z,2.30
2019-05-30T04:35:20.653Z,2.55
2019-05-30T04:37:47.896Z,2.25
2019-05-30T04:40:17.650Z,2.58
2019-05-30T04:42:45.686Z,2.40
2019-05-30T04:45:13.737Z,2.83
2019-05-30T04:47:41.007Z,2.70
2019-05-30T04:50:10.116Z,2.50
2019-05-30T04:52:37.632Z,2.30
2019-05-30T04:55:05.279Z,2.30
2019-05-30T04:57:32.525Z,2.85
2019-05-30T05:00:01.742Z,2.58
2019-05-30T05:02:29.900Z,2.70
2019-05-30T05:04:57.270Z,2.90
2019-05-30T05:07:24.793Z,2.62
2019-05-30T05:09:52.391Z,2.70
2019-05-30T05:12:20.576Z,2.60
2019-05-30T05:14:48.341Z,2.77
2019-05-30T05:17:16.895Z,2.80
2019-05-30T05:19:45.003Z,3.10
2019-05-30T05:22:12.832Z,2.65
2019-05-30T05:24:40.774Z,2.60
2019-05-30T05:27:10.016Z,2.65
2019-05-30T05:29:37.718Z,2.95
2019-05-30T05:32:04.959Z,2.80
2019-05-30T05:34:32.603Z,2.87
2019-05-30T05:37:00.411Z,2.90
2019-05-30T05:39:28.690Z,2.72
2019-05-30T05:41:56.238Z,2.83
2019-05-30T05:44:24.555Z,2.50
2019-05-30T05:46:52.259Z,2.98
2019-05-30T05:49:20.589Z,2.60
2019-05-30T05:51:48.675Z,3.15
2019-05-30T05:54:16.814Z,2.52
2019-05-30T05:56:44.802Z,2.72
2019-05-30T05:59:12.479Z,3.08
2019-05-30T06:01:40.582Z,2.92
2019-05-30T06:04:13.245Z,2.50
2019-05-30T06:06:37.518Z,2.80
2019-05-30T06:09:07.115Z,3.02
2019-05-30T06:11:34.836Z,2.62
2019-05-30T06:14:02.779Z,2.80
2019-05-30T06:16:30.229Z,3.27
2019-05-30T06:18:57.497Z,3.20
2019-05-30T06:21:25.460Z,3.27
2019-05-30T06:23:53.455Z,3.62
2019-05-30T06:26:22.488Z,3.45
2019-05-30T06:28:50.518Z,3.40
2019-05-30T06:31:18.695Z,2.87
2019-05-30T06:33:46.991Z,2.55
2019-05-30T06:36:14.255Z,3.12
2019-05-30T06:38:41.498Z,2.75
2019-05-30T06:41:09.023Z,2.70
2019-05-30T06:43:36.535Z,3.02
2019-05-30T06:46:04.100Z,2.75
2019-05-30T06:48:31.373Z,2.95
2019-05-30T06:50:59.504Z,3.02
2019-05-30T06:53:27.434Z,3.22
2019-05-30T06:55:54.982Z,2.50
2019-05-30T06:58:40.055Z,2.75
2019-05-30T07:00:52.540Z,2.50
2019-05-30T07:03:20.155Z,2.77
2019-05-30T07:05:48.656Z,2.92
2019-05-30T07:08:16.745Z,2.83
2019-05-30T07:10:44.082Z,2.95
2019-05-30T07:13:11.593Z,2.50
2019-05-30T07:15:39.453Z,2.60
2019-05-30T07:18:06.674Z,2.60
2019-05-30T07:20:33.936Z,2.77
2019-05-30T07:23:01.776Z,2.75
2019-05-30T07:25:29.938Z,2.58
2019-05-30T07:27:57.687Z,2.80
2019-05-30T07:30:25.827Z,2.80
2019-05-30T07:32:53.722Z,2.72
2019-05-30T07:35:21.521Z,2.62
2019-05-30T07:37:49.055Z,3.10
2019-05-30T07:40:19.419Z,2.50
2019-05-30T07:42:46.007Z,2.77
2019-05-30T07:45:14.584Z,2.67
2019-05-30T07:47:42.657Z,2.90
2019-05-30T07:50:10.336Z,2.60
2019-05-30T07:52:38.928Z,2.62
2019-05-30T07:55:06.748Z,2.47
2019-05-30T07:57:34.627Z,2.33
2019-05-30T08:00:02.390Z,2.20
2019-05-30T08:02:29.953Z,2.10
2019-05-30T08:04:57.825Z,2.60
2019-05-30T08:07:26.476Z,2.30
2019-05-30T08:09:54.144Z,2.77
2019-05-30T08:12:21.609Z,2.67
2019-05-30T08:14:49.104Z,2.72
2019-05-30T08:17:16.343Z,2.85
2019-05-30T08:19:43.695Z,2.65
2019-05-30T08:22:11.289Z,2.62
2019-05-30T08:24:39.030Z,2.30
2019-05-30T08:27:06.462Z,2.30
2019-05-30T08:29:34.394Z,2.50
2019-05-30T08:32:01.793Z,2.55
2019-05-30T08:34:30.370Z,2.17
2019-05-30T08:36:57.751Z,2.60
2019-05-30T08:39:24.980Z,2.40
2019-05-30T08:41:52.290Z,2.52
2019-05-30T08:44:20.184Z,2.10
2019-05-30T08:46:47.954Z,2.30
2019-05-30T08:49:15.816Z,2.42
2019-05-30T08:51:43.690Z,2.50
2019-05-30T08:54:13.722Z,2.47
2019-05-30T08:56:40.963Z,2.40
2019-05-30T08:59:08.156Z,2.30
2019-05-30T09:01:35.809Z,2.30
2019-05-30T09:04:03.383Z,2.50
2019-05-30T09:06:30.623Z,2.75
2019-05-30T09:08:57.802Z,2.47
2019-05-30T09:11:25.339Z,2.35
2019-05-30T09:13:52.564Z,2.30
2019-05-30T09:16:20.359Z,2.08
2019-05-30T09:18:48.234Z,2.33
2019-05-30T09:21:15.796Z,2.00
2019-05-30T09:23:44.061Z,1.80
2019-05-30T09:26:11.413Z,1.82
2019-05-30T09:28:40.379Z,1.77
2019-05-30T09:31:08.487Z,1.50
2019-05-30T09:33:36.167Z,1.27
2019-05-30T09:36:12.670Z,1.10
2019-05-30T09:38:33.564Z,1.30
2019-05-30T09:41:01.127Z,1.22
2019-05-30T09:43:28.978Z,1.32
2019-05-30T09:45:56.556Z,1.30
2019-05-30T09:48:24.090Z,1.32
2019-05-30T09:50:51.308Z,1.60
2019-05-30T09:53:18.587Z,1.85
2019-05-30T09:55:46.312Z,1.75
2019-05-30T09:58:13.978Z,1.70
2019-05-30T10:00:42.914Z,1.92
2019-05-30T10:03:11.043Z,1.85
2019-05-30T10:05:38.596Z,1.77
2019-05-30T10:08:06.033Z,1.60
2019-05-30T10:10:33.526Z,1.70
2019-05-30T10:13:01.045Z,1.47
2019-05-30T10:15:28.290Z,1.42
2019-05-30T10:17:56.864Z,2.02
2019-05-30T10:20:24.431Z,1.47
2019-05-30T10:22:53.304Z,1.60
2019-05-30T10:25:21.575Z,1.42
2019-05-30T10:27:52.448Z,1.37
2019-05-30T10:30:20.499Z,1.62
2019-05-30T10:32:49.038Z,1.85
2019-05-30T10:35:18.687Z,1.22
2019-05-30T10:37:47.141Z,1.60
2019-05-30T10:40:14.772Z,1.37
2019-05-30T10:42:42.290Z,1.50
2019-05-30T10:45:12.092Z,1.52
2019-05-30T10:47:39.803Z,1.35
2019-05-30T10:50:08.999Z,1.57
2019-05-30T10:52:43.652Z,1.52
2019-05-30T10:55:12.397Z,1.50
2019-05-30T10:57:39.939Z,1.55
2019-05-30T11:00:09.854Z,1.50
2019-05-30T11:02:37.774Z,1.80
2019-05-30T11:05:06.034Z,1.90
2019-05-30T11:08:00.145Z,1.90
2019-05-30T11:10:37.658Z,2.42
2019-05-30T11:13:07.447Z,1.80
2019-05-30T11:15:34.788Z,1.40
2019-05-30T11:18:02.309Z,1.20
2019-05-30T11:20:29.806Z,1.20
2019-05-30T11:22:58.786Z,1.22
2019-05-30T11:25:26.032Z,1.45
2019-05-30T11:27:54.751Z,1.20
2019-05-30T11:30:22.267Z,1.25
2019-05-30T11:32:50.836Z,1.47
2019-05-30T11:35:18.657Z,1.55
2019-05-30T11:37:46.015Z,1.50
2019-05-30T11:40:13.527Z,1.30
2019-05-30T11:42:40.751Z,1.40
2019-05-30T11:45:08.065Z,1.30
2019-05-30T11:47:35.270Z,1.30
2019-05-30T11:50:02.972Z,1.22
2019-05-30T11:52:30.497Z,1.37
2019-05-30T11:54:58.098Z,1.30
2019-05-30T11:57:25.759Z,1.50
2019-05-30T11:59:54.227Z,1.40
2019-05-30T12:02:22.526Z,1.30
2019-05-30T12:04:50.493Z,1.45
2019-05-30T12:07:35.421Z,1.30
2019-05-30T12:09:49.178Z,1.40
2019-05-30T12:12:17.033Z,1.30
2019-05-30T12:14:44.308Z,1.10
2019-05-30T12:17:11.608Z,1.47
2019-05-30T12:19:39.775Z,1.30
2019-05-30T12:22:07.615Z,1.50
2019-05-30T12:24:36.595Z,1.62
2019-05-30T12:27:03.975Z,1.70
2019-05-30T12:29:31.908Z,1.60
2019-05-30T12:32:01.837Z,1.20
2019-05-30T12:34:30.100Z,1.40
2019-05-30T12:36:58.485Z,1.67
2019-05-30T12:39:27.284Z,1.27
2019-05-30T12:41:54.877Z,1.20
2019-05-30T12:44:22.620Z,1.40
2019-05-30T12:46:49.869Z,1.05
2019-05-30T12:49:17.783Z,1.30
2019-05-30T12:51:45.539Z,1.00
2019-05-30T12:54:13.040Z,1.22
2019-05-30T12:56:41.079Z,2.05
2019-05-30T12:59:08.262Z,1.27
2019-05-30T13:01:35.970Z,1.20
2019-05-30T13:04:03.695Z,1.15
2019-05-30T13:06:31.266Z,1.20
2019-05-30T13:08:59.072Z,1.30
2019-05-30T13:11:26.442Z,1.10
2019-05-30T13:13:56.580Z,1.10
2019-05-30T13:16:23.141Z,1.20
2019-05-30T13:18:50.360Z,1.25
2019-05-30T13:21:17.904Z,1.40
2019-05-30T13:23:45.711Z,0.90
2019-05-30T13:26:12.889Z,1.20
2019-05-30T13:28:40.539Z,1.20
2019-05-30T13:31:08.089Z,1.10
2019-05-30T13:33:38.275Z,1.05
2019-05-30T13:36:05.150Z,1.00
2019-05-30T13:38:32.496Z,1.50
2019-05-30T13:40:59.978Z,1.20
2019-05-30T13:43:28.120Z,1.50
2019-05-30T13:45:56.146Z,1.17
2019-05-30T13:48:23.468Z,1.30
2019-05-30T13:50:50.991Z,1.22
2019-05-30T13:53:18.231Z,1.27
2019-05-30T13:55:46.018Z,1.12
2019-05-30T13:58:13.258Z,1.22
2019-05-30T14:00:41.140Z,1.62
2019-05-30T14:03:08.573Z,1.67
2019-05-30T14:05:35.819Z,1.40
2019-05-30T14:10:40.516Z,1.22
2019-05-30T14:13:11.299Z,1.50
2019-05-30T14:15:39.532Z,1.55
2019-05-30T14:18:07.329Z,1.25
2019-05-30T14:20:34.968Z,1.25
2019-05-30T14:23:03.291Z,1.30
2019-05-30T14:25:30.919Z,1.50
2019-05-30T14:27:58.146Z,1.62
2019-05-30T14:30:25.731Z,1.90
2019-05-30T14:32:53.596Z,1.52
2019-05-30T14:35:20.898Z,1.45
2019-05-30T14:37:48.054Z,1.40
2019-05-30T14:40:16.303Z,1.50
2019-05-30T14:42:43.971Z,1.30
2019-05-30T14:45:12.682Z,1.52
2019-05-30T14:47:40.376Z,1.42
2019-05-30T14:50:09.031Z,1.40
2019-05-30T14:52:36.886Z,1.62
2019-05-30T14:55:05.143Z,1.50
2019-05-30T14:57:32.459Z,1.72
2019-05-30T15:00:01.946Z,1.72
2019-05-30T15:02:29.810Z,1.60
2019-05-30T15:04:57.029Z,1.65
2019-05-30T15:07:24.824Z,1.85
2019-05-30T15:09:52.006Z,1.70
2019-05-30T15:12:19.507Z,1.42
2019-05-30T15:14:57.434Z,1.40
2019-05-30T15:17:25.325Z,1.80
2019-05-30T15:19:52.778Z,1.82
2019-05-30T15:22:20.115Z,1.52
2019-05-30T15:24:47.688Z,1.80
2019-05-30T15:27:16.304Z,2.08
2019-05-30T15:29:43.695Z,1.75
2019-05-30T15:32:10.963Z,1.65
2019-05-30T15:34:38.899Z,1.72
2019-05-30T15:37:06.684Z,1.80
2019-05-30T15:39:34.409Z,1.80
2019-05-30T15:42:01.887Z,1.60
2019-05-30T15:44:29.452Z,1.87
2019-05-30T15:46:56.784Z,1.65
2019-05-30T15:49:24.679Z,1.65
2019-05-30T15:51:51.852Z,1.60
2019-05-30T15:54:19.391Z,2.20
2019-05-30T15:56:46.965Z,1.55
2019-05-30T15:59:15.760Z,1.70
2019-05-30T16:01:43.654Z,1.60
2019-05-30T16:04:11.985Z,1.57
2019-05-30T16:06:39.762Z,1.50
2019-05-30T16:09:06.966Z,1.60
2019-05-30T16:11:35.007Z,1.67
2019-05-30T16:14:02.804Z,1.47
2019-05-30T16:16:39.356Z,1.80
2019-05-30T16:19:15.103Z,1.77
2019-05-30T16:21:29.910Z,1.75
2019-05-30T16:23:57.331Z,1.80
2019-05-30T16:26:25.990Z,2.12
2019-05-30T16:28:53.393Z,1.77
2019-05-30T16:31:22.297Z,1.60
2019-05-30T16:33:49.992Z,1.92
2019-05-30T16:36:18.112Z,1.70
2019-05-30T16:38:45.881Z,1.92
2019-05-30T16:41:14.157Z,1.90
2019-05-30T16:43:42.043Z,1.50
2019-05-30T16:46:09.277Z,1.80
2019-05-30T16:48:36.618Z,1.70
2019-05-30T16:51:03.807Z,1.30
2019-05-30T16:53:31.058Z,1.55
2019-05-30T16:55:58.433Z,1.60
2019-05-30T16:58:25.986Z,1.40
2019-05-30T17:00:54.750Z,1.22
2019-05-30T17:03:22.255Z,1.40
2019-05-30T17:05:49.802Z,1.40
2019-05-30T17:08:18.051Z,1.47
2019-05-30T17:10:45.322Z,1.42
2019-05-30T17:13:12.564Z,1.42
2019-05-30T17:15:39.783Z,1.32
2019-05-30T17:18:07.119Z,1.37
2019-05-30T17:20:34.898Z,1.60
2019-05-30T17:23:02.106Z,1.40
2019-05-30T17:25:29.607Z,1.70
2019-05-30T17:27:57.243Z,1.40
2019-05-30T17:30:25.726Z,1.67
2019-05-30T17:32:53.172Z,1.50
2019-05-30T17:35:21.966Z,1.52
2019-05-30T17:37:49.519Z,1.80
2019-05-30T17:40:16.931Z,1.50
2019-05-30T17:42:44.171Z,1.50
2019-05-30T17:45:12.159Z,1.50
2019-05-30T17:47:40.050Z,1.40
2019-05-30T17:50:10.240Z,1.55
2019-05-30T17:52:37.451Z,1.55
2019-05-30T17:55:05.635Z,1.52
2019-05-30T17:57:33.569Z,1.50
2019-05-30T18:00:01.879Z,1.52
2019-05-30T18:02:30.509Z,1.42
2019-05-30T18:04:57.826Z,1.92
2019-05-30T18:07:26.947Z,1.40
2019-05-30T18:09:55.352Z,1.50
2019-05-30T18:12:25.073Z,1.50
2019-05-30T18:14:52.415Z,1.45
2019-05-30T18:17:21.245Z,1.47
2019-05-30T18:19:49.131Z,1.60
2019-05-30T18:22:16.767Z,1.70
2019-05-30T18:24:44.253Z,1.60
2019-05-30T18:27:11.819Z,1.60
2019-05-30T18:29:39.712Z,1.60
2019-05-30T18:32:06.923Z,1.57
2019-05-30T18:34:34.314Z,1.40
2019-05-30T18:37:01.879Z,1.45
2019-05-30T18:39:29.081Z,1.40
2019-05-30T18:41:56.343Z,1.35
2019-05-30T18:44:25.711Z,1.52
2019-05-30T18:47:03.735Z,1.57
2019-05-30T18:49:33.165Z,1.42
2019-05-30T18:52:01.387Z,1.62
2019-05-30T18:54:28.846Z,1.55
2019-05-30T18:56:56.094Z,1.60
2019-05-30T18:59:24.841Z,1.87
2019-05-30T19:01:52.974Z,1.40
2019-05-30T19:04:22.867Z,1.75
2019-05-30T19:06:49.627Z,1.82
2019-05-30T19:09:17.298Z,1.80
2019-05-30T19:11:44.847Z,1.87
2019-05-30T19:14:12.064Z,2.00
2019-05-30T19:16:39.268Z,1.90
2019-05-30T19:19:06.746Z,1.75
2019-05-30T19:21:34.315Z,1.80
2019-05-30T19:24:01.568Z,1.85
2019-05-30T19:26:28.806Z,1.92
2019-05-30T19:28:56.062Z,2.00
2019-05-30T19:31:23.228Z,1.92
2019-05-30T19:33:50.801Z,1.95
2019-05-30T19:36:18.039Z,1.75
2019-05-30T19:38:45.708Z,2.10
2019-05-30T19:41:12.930Z,2.00
2019-05-30T19:43:40.223Z,2.37
2019-05-30T19:46:07.807Z,1.80
2019-05-30T19:48:36.393Z,2.10
2019-05-30T19:51:04.543Z,1.70
2019-05-30T19:53:32.831Z,2.00
2019-05-30T19:56:11.364Z,2.00
2019-05-30T19:58:39.784Z,1.92
2019-05-30T20:01:07.584Z,2.30
2019-05-30T20:03:41.455Z,2.30
2019-05-30T20:06:05.219Z,2.20
2019-05-30T20:08:48.196Z,2.25
2019-05-30T20:11:15.651Z,2.08
2019-05-30T20:13:43.051Z,2.00
2019-05-30T20:16:10.611Z,2.05
2019-05-30T20:18:37.877Z,2.30
2019-05-30T20:21:05.427Z,2.40
2019-05-30T20:23:47.546Z,2.40
2019-05-30T20:26:02.715Z,2.15
2019-05-30T20:28:29.954Z,2.25
2019-05-30T20:30:57.629Z,2.40
2019-05-30T20:33:24.843Z,2.27
2019-05-30T20:35:52.328Z,2.52
2019-05-30T20:38:19.585Z,2.00
2019-05-30T20:40:47.275Z,2.77
2019-05-30T20:43:15.127Z,2.00
2019-05-30T20:45:47.015Z,2.05
2019-05-30T20:48:12.334Z,2.50
2019-05-30T20:50:39.842Z,2.22
2019-05-30T20:53:20.509Z,2.15
2019-05-30T20:55:48.179Z,2.15
2019-05-30T20:58:16.087Z,2.40
2019-05-30T21:00:43.824Z,1.95
2019-05-30T21:03:11.527Z,1.95
2019-05-30T21:05:39.860Z,2.37
2019-05-30T21:08:07.431Z,2.40
2019-05-30T21:10:37.023Z,2.12
2019-05-30T21:13:04.339Z,2.33
2019-05-30T21:15:33.141Z,2.27
2019-05-30T21:18:02.089Z,2.17
2019-05-30T21:20:29.287Z,2.22
2019-05-30T21:22:56.495Z,2.37
2019-05-30T21:25:25.255Z,2.50
2019-05-30T21:27:52.793Z,2.15
2019-05-30T21:30:20.411Z,2.10
2019-05-30T21:32:48.590Z,2.02
2019-05-30T21:35:16.596Z,2.42
2019-05-30T21:37:44.026Z,2.10
2019-05-30T21:40:12.433Z,2.27
2019-05-30T21:42:56.818Z,2.50
2019-05-30T21:45:09.393Z,2.30
2019-05-30T21:47:38.545Z,2.02
2019-05-30T21:50:07.042Z,2.05
2019-05-30T21:52:34.236Z,1.92
2019-05-30T21:55:03.430Z,1.87
2019-05-30T21:57:30.643Z,2.10
2019-05-30T21:59:58.184Z,2.10
2019-05-30T22:02:25.494Z,2.02
2019-05-30T22:04:53.024Z,2.55
2019-05-30T22:07:20.656Z,2.27
2019-05-30T22:13:09.488Z,2.55
2019-05-30T22:15:41.677Z,2.60
2019-05-30T22:18:35.043Z,2.30
2019-05-30T22:21:06.406Z,2.30
2019-05-30T22:23:44.157Z,2.35
2019-05-30T22:26:13.229Z,2.60
2019-05-30T22:28:44.617Z,1.90
2019-05-30T22:31:14.978Z,2.15
2019-05-30T22:33:45.178Z,2.42
2019-05-30T22:36:15.418Z,2.47
2019-05-30T22:38:44.849Z,2.55
2019-05-30T22:41:13.923Z,2.30
2019-05-30T22:43:41.289Z,2.37
2019-05-30T22:46:08.513Z,2.25
2019-05-30T22:48:36.086Z,2.17
2019-05-30T22:51:03.352Z,1.90
2019-05-30T22:53:31.255Z,2.50
2019-05-30T22:56:00.787Z,2.22
2019-05-30T22:58:30.844Z,2.20
2019-05-30T23:00:58.527Z,2.50
2019-05-30T23:03:25.787Z,2.40
2019-05-30T23:05:53.791Z,2.52
2019-05-30T23:08:21.359Z,2.30
2019-05-30T23:10:49.632Z,2.50
2019-05-30T23:13:17.026Z,2.20
2019-05-30T23:15:45.987Z,2.77
2019-05-30T23:18:13.654Z,2.67
2019-05-30T23:20:40.903Z,2.60
2019-05-30T23:23:08.142Z,2.27
2019-05-30T23:25:35.496Z,2.20
2019-05-30T23:28:03.054Z,2.10
2019-05-30T23:30:30.847Z,2.20
2019-05-30T23:32:58.507Z,2.10
2019-05-30T23:35:26.079Z,2.40
2019-05-30T23:37:54.694Z,2.35
2019-05-30T23:40:22.034Z,2.25
2019-05-30T23:42:49.299Z,2.35
2019-05-30T23:45:17.267Z,2.12
2019-05-30T23:47:44.520Z,2.05
2019-05-30T23:50:12.354Z,2.10
2019-05-30T23:52:39.935Z,2.52
2019-05-30T23:55:07.541Z,2.35
2019-05-30T23:57:35.194Z,2.00
